sensor_id;sensor_type;location;lat;lon;timestamp;pressure;altitude;pressure_sealevel;temperature;humidity
34931;BME280;21134;49.646;8.560;2023-08-21T00:00:15;100896.03;;;23.12;92.80
34931;BME280;21134;49.646;8.560;2023-08-21T00:02:43;100896.81;;;23.14;93.21
34931;BME280;21134;49.646;8.560;2023-08-21T00:05:09;100896.72;;;23.15;92.51
34931;BME280;21134;49.646;8.560;2023-08-21T00:07:36;100901.19;;;23.13;92.80
34931;BME280;21134;49.646;8.560;2023-08-21T00:10:03;100905.53;;;23.13;93.03
34931;BME280;21134;49.646;8.560;2023-08-21T00:12:29;100899.47;;;23.12;92.75
34931;BME280;21134;49.646;8.560;2023-08-21T00:14:57;100896.72;;;23.15;92.21
34931;BME280;21134;49.646;8.560;2023-08-21T00:17:23;100905.41;;;23.16;92.47
34931;BME280;21134;49.646;8.560;2023-08-21T00:19:51;100907.97;;;23.17;92.46
34931;BME280;21134;49.646;8.560;2023-08-21T00:22:18;100900.41;;;23.11;92.79
34931;BME280;21134;49.646;8.560;2023-08-21T00:24:44;100895.34;;;23.08;92.97
34931;BME280;21134;49.646;8.560;2023-08-21T00:27:10;100895.34;;;23.08;92.72
34931;BME280;21134;49.646;8.560;2023-08-21T00:29:37;100892.44;;;23.14;91.91
34931;BME280;21134;49.646;8.560;2023-08-21T00:32:03;100894.22;;;23.14;92.41
34931;BME280;21134;49.646;8.560;2023-08-21T00:34:31;100897.84;;;23.10;92.84
34931;BME280;21134;49.646;8.560;2023-08-21T00:36:59;100893.84;;;23.03;92.86
34931;BME280;21134;49.646;8.560;2023-08-21T00:39:26;100894.31;;;22.92;93.89
34931;BME280;21134;49.646;8.560;2023-08-21T00:41:53;100896.38;;;22.85;94.15
34931;BME280;21134;49.646;8.560;2023-08-21T00:44:19;100900.59;;;22.88;94.24
34931;BME280;21134;49.646;8.560;2023-08-21T00:46:45;100893.53;;;22.90;94.09
34931;BME280;21134;49.646;8.560;2023-08-21T00:49:12;100892.78;;;22.88;94.22
34931;BME280;21134;49.646;8.560;2023-08-21T00:51:39;100887.19;;;22.77;94.57
34931;BME280;21134;49.646;8.560;2023-08-21T00:54:07;100890.22;;;22.67;95.01
34931;BME280;21134;49.646;8.560;2023-08-21T00:56:33;100888.56;;;22.65;95.45
34931;BME280;21134;49.646;8.560;2023-08-21T00:59:00;100882.66;;;22.61;95.69
34931;BME280;21134;49.646;8.560;2023-08-21T01:01:28;100884.56;;;22.58;95.79
34931;BME280;21134;49.646;8.560;2023-08-21T01:03:54;100882.22;;;22.51;95.86
34931;BME280;21134;49.646;8.560;2023-08-21T01:06:21;100877.41;;;22.42;95.87
34931;BME280;21134;49.646;8.560;2023-08-21T01:08:53;100881.06;;;22.38;96.26
34931;BME280;21134;49.646;8.560;2023-08-21T01:11:31;100884.75;;;22.34;96.65
34931;BME280;21134;49.646;8.560;2023-08-21T01:14:06;100885.44;;;22.38;96.92
34931;BME280;21134;49.646;8.560;2023-08-21T01:16:37;100888.81;;;22.40;96.51
34931;BME280;21134;49.646;8.560;2023-08-21T01:19:06;100889.59;;;22.42;96.17
34931;BME280;21134;49.646;8.560;2023-08-21T01:21:35;100896.00;;;22.35;96.24
34931;BME280;21134;49.646;8.560;2023-08-21T01:24:03;100892.59;;;22.33;96.87
34931;BME280;21134;49.646;8.560;2023-08-21T01:26:30;100892.25;;;22.21;97.06
34931;BME280;21134;49.646;8.560;2023-08-21T01:28:56;100887.38;;;22.12;97.79
34931;BME280;21134;49.646;8.560;2023-08-21T01:31:24;100894.28;;;22.13;97.46
34931;BME280;21134;49.646;8.560;2023-08-21T01:33:54;100895.94;;;22.16;97.59
34931;BME280;21134;49.646;8.560;2023-08-21T01:36:23;100896.78;;;22.16;97.60
34931;BME280;21134;49.646;8.560;2023-08-21T01:38:50;100905.81;;;22.08;97.86
34931;BME280;21134;49.646;8.560;2023-08-21T01:41:18;100903.34;;;22.04;98.36
34931;BME280;21134;49.646;8.560;2023-08-21T01:43:44;100906.06;;;22.01;98.47
34931;BME280;21134;49.646;8.560;2023-08-21T01:46:12;100910.50;;;21.99;98.61
34931;BME280;21134;49.646;8.560;2023-08-21T01:48:38;100910.81;;;21.92;98.84
34931;BME280;21134;49.646;8.560;2023-08-21T01:51:05;100911.56;;;21.95;98.54
34931;BME280;21134;49.646;8.560;2023-08-21T01:53:32;100910.66;;;21.96;98.63
34931;BME280;21134;49.646;8.560;2023-08-21T01:55:59;100905.31;;;21.99;98.23
34931;BME280;21134;49.646;8.560;2023-08-21T01:58:26;100900.84;;;22.01;98.15
34931;BME280;21134;49.646;8.560;2023-08-21T02:00:53;100905.22;;;22.01;98.31
34931;BME280;21134;49.646;8.560;2023-08-21T02:03:19;100904.38;;;22.00;98.55
34931;BME280;21134;49.646;8.560;2023-08-21T02:05:46;100901.91;;;21.97;98.53
34931;BME280;21134;49.646;8.560;2023-08-21T02:08:13;100903.66;;;21.97;98.97
34931;BME280;21134;49.646;8.560;2023-08-21T02:10:48;100909.00;;;21.94;98.58
34931;BME280;21134;49.646;8.560;2023-08-21T02:13:15;100910.81;;;21.92;98.67
34931;BME280;21134;49.646;8.560;2023-08-21T02:15:42;100904.88;;;21.88;98.77
34931;BME280;21134;49.646;8.560;2023-08-21T02:18:09;100908.88;;;21.76;99.34
34931;BME280;21134;49.646;8.560;2023-08-21T02:20:35;100904.66;;;21.72;99.59
34931;BME280;21134;49.646;8.560;2023-08-21T02:23:02;100910.88;;;21.70;99.97
34931;BME280;21134;49.646;8.560;2023-08-21T02:25:29;100911.84;;;21.67;100.00
34931;BME280;21134;49.646;8.560;2023-08-21T02:27:56;100909.59;;;21.58;100.00
34931;BME280;21134;49.646;8.560;2023-08-21T02:30:22;100914.81;;;21.58;100.00
34931;BME280;21134;49.646;8.560;2023-08-21T02:32:51;100912.13;;;21.59;100.00
34931;BME280;21134;49.646;8.560;2023-08-21T02:35:18;100905.25;;;21.58;100.00
34931;BME280;21134;49.646;8.560;2023-08-21T02:37:44;100908.81;;;21.56;100.00
34931;BME280;21134;49.646;8.560;2023-08-21T02:40:11;100916.63;;;21.56;100.00
34931;BME280;21134;49.646;8.560;2023-08-21T02:42:37;100910.25;;;21.63;100.00
34931;BME280;21134;49.646;8.560;2023-08-21T02:45:05;100916.50;;;21.59;100.00
34931;BME280;21134;49.646;8.560;2023-08-21T02:47:35;100920.78;;;21.60;100.00
34931;BME280;21134;49.646;8.560;2023-08-21T02:50:03;100923.38;;;21.60;100.00
34931;BME280;21134;49.646;8.560;2023-08-21T02:52:30;100920.03;;;21.58;100.00
34931;BME280;21134;49.646;8.560;2023-08-21T02:54:56;100916.56;;;21.57;100.00
34931;BME280;21134;49.646;8.560;2023-08-21T02:57:23;100920.06;;;21.56;100.00
34931;BME280;21134;49.646;8.560;2023-08-21T02:59:49;100920.19;;;21.53;100.00
34931;BME280;21134;49.646;8.560;2023-08-21T03:02:17;100917.59;;;21.53;100.00
34931;BME280;21134;49.646;8.560;2023-08-21T03:04:43;100922.03;;;21.51;100.00
34931;BME280;21134;49.646;8.560;2023-08-21T03:07:12;100919.47;;;21.50;100.00
34931;BME280;21134;49.646;8.560;2023-08-21T03:09:39;100920.38;;;21.49;100.00
34931;BME280;21134;49.646;8.560;2023-08-21T03:12:06;100916.09;;;21.48;100.00
34931;BME280;21134;49.646;8.560;2023-08-21T03:14:33;100914.38;;;21.47;100.00
34931;BME280;21134;49.646;8.560;2023-08-21T03:16:59;100914.25;;;21.50;100.00
34931;BME280;21134;49.646;8.560;2023-08-21T03:19:26;100913.41;;;21.49;100.00
34931;BME280;21134;49.646;8.560;2023-08-21T03:21:52;100917.69;;;21.50;100.00
34931;BME280;21134;49.646;8.560;2023-08-21T03:24:20;100919.53;;;21.48;100.00
34931;BME280;21134;49.646;8.560;2023-08-21T03:26:47;100919.47;;;21.50;100.00
34931;BME280;21134;49.646;8.560;2023-08-21T03:29:14;100915.19;;;21.49;100.00
34931;BME280;21134;49.646;8.560;2023-08-21T03:31:40;100912.44;;;21.52;100.00
34931;BME280;21134;49.646;8.560;2023-08-21T03:34:07;100915.97;;;21.51;100.00
34931;BME280;21134;49.646;8.560;2023-08-21T03:36:33;100913.25;;;21.54;100.00
34931;BME280;21134;49.646;8.560;2023-08-21T03:39:03;100911.47;;;21.54;100.00
34931;BME280;21134;49.646;8.560;2023-08-21T03:41:32;100912.50;;;21.50;100.00
34931;BME280;21134;49.646;8.560;2023-08-21T03:43:58;100917.06;;;21.45;100.00
34931;BME280;21134;49.646;8.560;2023-08-21T03:46:25;100913.66;;;21.43;100.00
34931;BME280;21134;49.646;8.560;2023-08-21T03:48:51;100911.00;;;21.45;100.00
34931;BME280;21134;49.646;8.560;2023-08-21T03:51:18;100907.56;;;21.44;100.00
34931;BME280;21134;49.646;8.560;2023-08-21T03:53:44;100923.28;;;21.41;100.00
34931;BME280;21134;49.646;8.560;2023-08-21T03:56:11;100917.56;;;21.31;100.00
34931;BME280;21134;49.646;8.560;2023-08-21T03:58:39;100925.50;;;21.28;100.00
34931;BME280;21134;49.646;8.560;2023-08-21T04:01:05;100923.97;;;21.23;100.00
34931;BME280;21134;49.646;8.560;2023-08-21T04:03:31;100929.41;;;21.17;100.00
34931;BME280;21134;49.646;8.560;2023-08-21T04:05:58;100925.34;;;21.09;100.00
34931;BME280;21134;49.646;8.560;2023-08-21T04:08:25;100940.03;;;21.10;100.00
34931;BME280;21134;49.646;8.560;2023-08-21T04:10:51;100931.28;;;21.13;100.00
34931;BME280;21134;49.646;8.560;2023-08-21T04:13:19;100936.66;;;21.08;100.00
34931;BME280;21134;49.646;8.560;2023-08-21T04:15:48;100935.06;;;21.04;100.00
34931;BME280;21134;49.646;8.560;2023-08-21T04:18:16;100931.66;;;21.02;100.00
34931;BME280;21134;49.646;8.560;2023-08-21T04:20:42;100938.47;;;21.06;100.00
34931;BME280;21134;49.646;8.560;2023-08-21T04:23:09;100934.22;;;21.04;100.00
34931;BME280;21134;49.646;8.560;2023-08-21T04:25:35;100938.59;;;21.03;100.00
34931;BME280;21134;49.646;8.560;2023-08-21T04:28:02;100939.31;;;21.07;100.00
34931;BME280;21134;49.646;8.560;2023-08-21T04:30:28;100937.38;;;21.12;100.00
34931;BME280;21134;49.646;8.560;2023-08-21T04:32:56;100945.13;;;21.13;100.00
34931;BME280;21134;49.646;8.560;2023-08-21T04:35:23;100941.81;;;21.10;100.00
34931;BME280;21134;49.646;8.560;2023-08-21T04:37:50;100940.78;;;21.14;100.00
34931;BME280;21134;49.646;8.560;2023-08-21T04:40:16;100941.56;;;21.16;100.00
34931;BME280;21134;49.646;8.560;2023-08-21T04:42:46;100948.47;;;21.17;100.00
34931;BME280;21134;49.646;8.560;2023-08-21T04:45:12;100940.78;;;21.14;100.00
34931;BME280;21134;49.646;8.560;2023-08-21T04:47:39;100943.38;;;21.14;100.00
34931;BME280;21134;49.646;8.560;2023-08-21T04:50:07;100945.88;;;21.17;100.00
34931;BME280;21134;49.646;8.560;2023-08-21T04:52:34;100944.94;;;21.18;100.00
34931;BME280;21134;49.646;8.560;2023-08-21T04:55:00;100938.66;;;21.24;100.00
34931;BME280;21134;49.646;8.560;2023-08-21T04:57:27;100943.66;;;21.30;100.00
34931;BME280;21134;49.646;8.560;2023-08-21T04:59:53;100945.28;;;21.32;100.00
34931;BME280;21134;49.646;8.560;2023-08-21T05:02:19;100946.06;;;21.34;100.00
34931;BME280;21134;49.646;8.560;2023-08-21T05:04:46;100950.41;;;21.34;100.00
34931;BME280;21134;49.646;8.560;2023-08-21T05:07:14;100951.25;;;21.36;100.00
34931;BME280;21134;49.646;8.560;2023-08-21T05:09:41;100958.09;;;21.39;100.00
34931;BME280;21134;49.646;8.560;2023-08-21T05:12:07;100959.91;;;21.36;100.00
34931;BME280;21134;49.646;8.560;2023-08-21T05:14:34;100958.94;;;21.39;100.00
34931;BME280;21134;49.646;8.560;2023-08-21T05:17:00;100965.78;;;21.42;100.00
34931;BME280;21134;49.646;8.560;2023-08-21T05:19:27;100963.91;;;21.45;100.00
34931;BME280;21134;49.646;8.560;2023-08-21T05:21:53;100956.00;;;21.48;100.00
34931;BME280;21134;49.646;8.560;2023-08-21T05:24:21;100962.72;;;21.54;100.00
34931;BME280;21134;49.646;8.560;2023-08-21T05:26:48;100971.19;;;21.59;100.00
34931;BME280;21134;49.646;8.560;2023-08-21T05:29:14;100976.97;;;21.67;100.00
34931;BME280;21134;49.646;8.560;2023-08-21T05:31:40;100971.66;;;21.69;100.00
34931;BME280;21134;49.646;8.560;2023-08-21T05:34:07;100976.59;;;21.76;100.00
34931;BME280;21134;49.646;8.560;2023-08-21T05:36:34;100983.06;;;21.88;98.91
34931;BME280;21134;49.646;8.560;2023-08-21T05:39:02;100976.88;;;21.91;98.46
34931;BME280;21134;49.646;8.560;2023-08-21T05:41:32;100981.03;;;21.95;98.56
34931;BME280;21134;49.646;8.560;2023-08-21T05:43:58;100986.25;;;21.95;98.57
34931;BME280;21134;49.646;8.560;2023-08-21T05:46:25;100989.66;;;21.97;98.54
34931;BME280;21134;49.646;8.560;2023-08-21T05:48:51;100990.13;;;22.06;97.59
34931;BME280;21134;49.646;8.560;2023-08-21T05:51:18;100994.63;;;22.25;96.36
34931;BME280;21134;49.646;8.560;2023-08-21T05:53:44;100997.28;;;22.23;96.68
34931;BME280;21134;49.646;8.560;2023-08-21T05:56:11;100993.78;;;22.24;96.80
34931;BME280;21134;49.646;8.560;2023-08-21T05:58:38;100994.16;;;22.36;96.19
34931;BME280;21134;49.646;8.560;2023-08-21T06:01:05;100997.44;;;22.41;95.33
34931;BME280;21134;49.646;8.560;2023-08-21T06:03:31;100993.06;;;22.41;95.26
34931;BME280;21134;49.646;8.560;2023-08-21T06:05:58;100994.31;;;22.53;94.40
34931;BME280;21134;49.646;8.560;2023-08-21T06:08:24;100999.59;;;22.51;94.41
34931;BME280;21134;49.646;8.560;2023-08-21T06:10:51;101001.41;;;22.70;93.16
34931;BME280;21134;49.646;8.560;2023-08-21T06:13:18;101002.13;;;22.73;92.40
34931;BME280;21134;49.646;8.560;2023-08-21T06:15:45;101007.66;;;22.86;91.74
34931;BME280;21134;49.646;8.560;2023-08-21T06:18:13;101006.28;;;22.78;92.68
34931;BME280;21134;49.646;8.560;2023-08-21T06:20:39;101010.22;;;22.88;92.39
34931;BME280;21134;49.646;8.560;2023-08-21T06:23:07;100999.03;;;22.84;93.06
34931;BME280;21134;49.646;8.560;2023-08-21T06:25:34;101007.19;;;22.97;91.88
34931;BME280;21134;49.646;8.560;2023-08-21T06:28:00;101009.63;;;23.02;91.74
34931;BME280;21134;49.646;8.560;2023-08-21T06:30:27;100996.56;;;23.02;92.16
34931;BME280;21134;49.646;8.560;2023-08-21T06:32:55;101008.25;;;23.13;91.06
34931;BME280;21134;49.646;8.560;2023-08-21T06:35:22;101009.84;;;23.16;90.05
34931;BME280;21134;49.646;8.560;2023-08-21T06:37:48;101019.13;;;23.23;90.35
34931;BME280;21134;49.646;8.560;2023-08-21T06:40:15;101012.41;;;23.36;89.84
34931;BME280;21134;49.646;8.560;2023-08-21T06:42:41;101018.34;;;23.40;90.18
34931;BME280;21134;49.646;8.560;2023-08-21T06:45:08;101019.31;;;23.56;88.87
34931;BME280;21134;49.646;8.560;2023-08-21T06:47:35;101020.38;;;23.52;88.31
34931;BME280;21134;49.646;8.560;2023-08-21T06:50:03;101015.00;;;23.55;88.26
34931;BME280;21134;49.646;8.560;2023-08-21T06:52:29;101011.84;;;23.49;88.83
34931;BME280;21134;49.646;8.560;2023-08-21T06:54:56;101022.91;;;23.54;88.49
34931;BME280;21134;49.646;8.560;2023-08-21T06:57:22;101010.50;;;23.59;88.25
34931;BME280;21134;49.646;8.560;2023-08-21T06:59:49;101004.97;;;23.65;88.28
34931;BME280;21134;49.646;8.560;2023-08-21T07:02:15;101015.94;;;23.73;88.02
34931;BME280;21134;49.646;8.560;2023-08-21T07:04:42;101014.88;;;23.77;87.36
34931;BME280;21134;49.646;8.560;2023-08-21T07:07:09;101017.03;;;23.86;87.25
34931;BME280;21134;49.646;8.560;2023-08-21T07:09:36;101014.41;;;23.86;87.44
34931;BME280;21134;49.646;8.560;2023-08-21T07:12:03;101020.47;;;24.06;86.10
34931;BME280;21134;49.646;8.560;2023-08-21T07:14:29;101022.69;;;24.13;85.90
34931;BME280;21134;49.646;8.560;2023-08-21T07:16:56;101018.78;;;24.22;85.05
34931;BME280;21134;49.646;8.560;2023-08-21T07:19:22;101028.03;;;24.29;84.98
34931;BME280;21134;49.646;8.560;2023-08-21T07:21:49;101023.47;;;24.33;84.48
34931;BME280;21134;49.646;8.560;2023-08-21T07:24:16;101015.25;;;24.41;83.89
34931;BME280;21134;49.646;8.560;2023-08-21T07:26:43;101021.97;;;24.46;83.82
34931;BME280;21134;49.646;8.560;2023-08-21T07:29:09;101021.19;;;24.62;82.72
34931;BME280;21134;49.646;8.560;2023-08-21T07:31:36;101025.81;;;24.74;83.61
34931;BME280;21134;49.646;8.560;2023-08-21T07:34:02;101025.84;;;24.90;82.72
34931;BME280;21134;49.646;8.560;2023-08-21T07:36:31;101026.56;;;25.09;81.70
34931;BME280;21134;49.646;8.560;2023-08-21T07:38:57;101022.41;;;25.22;79.89
34931;BME280;21134;49.646;8.560;2023-08-21T07:41:25;101021.28;;;25.26;79.46
34931;BME280;21134;49.646;8.560;2023-08-21T07:43:52;101019.97;;;25.35;80.12
34931;BME280;21134;49.646;8.560;2023-08-21T07:46:18;101015.84;;;25.47;79.16
34931;BME280;21134;49.646;8.560;2023-08-21T07:48:45;101026.16;;;25.66;78.82
34931;BME280;21134;49.646;8.560;2023-08-21T07:51:11;101017.44;;;25.81;77.77
34931;BME280;21134;49.646;8.560;2023-08-21T07:53:38;101018.47;;;25.94;76.70
34931;BME280;21134;49.646;8.560;2023-08-21T07:56:05;101013.78;;;26.00;77.10
34931;BME280;21134;49.646;8.560;2023-08-21T07:58:33;101012.13;;;26.13;76.86
34931;BME280;21134;49.646;8.560;2023-08-21T08:00:59;101016.00;;;26.21;76.28
34931;BME280;21134;49.646;8.560;2023-08-21T08:03:26;101018.47;;;26.25;76.36
34931;BME280;21134;49.646;8.560;2023-08-21T08:05:52;101020.13;;;26.26;75.62
34931;BME280;21134;49.646;8.560;2023-08-21T08:08:19;101016.13;;;26.34;75.57
34931;BME280;21134;49.646;8.560;2023-08-21T08:10:45;101015.00;;;26.54;75.13
34931;BME280;21134;49.646;8.560;2023-08-21T08:13:12;101017.47;;;26.72;74.46
34931;BME280;21134;49.646;8.560;2023-08-21T08:15:40;101017.09;;;26.92;73.77
34931;BME280;21134;49.646;8.560;2023-08-21T08:18:11;101017.19;;;27.05;74.17
34931;BME280;21134;49.646;8.560;2023-08-21T08:20:37;101014.59;;;27.19;72.86
34931;BME280;21134;49.646;8.560;2023-08-21T08:23:04;101019.91;;;27.32;72.92
34931;BME280;21134;49.646;8.560;2023-08-21T08:25:30;101020.91;;;27.44;71.94
34931;BME280;21134;49.646;8.560;2023-08-21T08:27:57;101014.88;;;27.56;71.63
34931;BME280;21134;49.646;8.560;2023-08-21T08:30:23;101026.22;;;27.56;71.26
34931;BME280;21134;49.646;8.560;2023-08-21T08:32:51;101022.81;;;27.69;70.03
34931;BME280;21134;49.646;8.560;2023-08-21T08:35:18;101017.28;;;27.73;69.40
34931;BME280;21134;49.646;8.560;2023-08-21T08:37:44;101016.81;;;27.81;69.57
34931;BME280;21134;49.646;8.560;2023-08-21T08:40:11;101020.31;;;27.94;68.89
34931;BME280;21134;49.646;8.560;2023-08-21T08:42:38;101019.31;;;28.10;67.60
34931;BME280;21134;49.646;8.560;2023-08-21T08:45:05;101015.97;;;28.20;68.57
34931;BME280;21134;49.646;8.560;2023-08-21T08:47:33;101014.44;;;28.31;69.02
34931;BME280;21134;49.646;8.560;2023-08-21T08:50:03;101007.22;;;28.47;67.36
34931;BME280;21134;49.646;8.560;2023-08-21T08:52:34;101003.75;;;28.59;66.80
34931;BME280;21134;49.646;8.560;2023-08-21T08:55:01;101005.31;;;28.62;65.50
34931;BME280;21134;49.646;8.560;2023-08-21T08:57:28;100999.59;;;28.68;65.92
34931;BME280;21134;49.646;8.560;2023-08-21T08:59:54;101002.88;;;28.71;65.78
34931;BME280;21134;49.646;8.560;2023-08-21T09:02:21;101003.59;;;28.86;65.06
34931;BME280;21134;49.646;8.560;2023-08-21T09:04:47;101000.00;;;29.13;63.49
34931;BME280;21134;49.646;8.560;2023-08-21T09:07:17;101004.34;;;29.14;65.08
34931;BME280;21134;49.646;8.560;2023-08-21T09:09:45;100997.47;;;29.24;64.16
34931;BME280;21134;49.646;8.560;2023-08-21T09:12:14;100995.78;;;29.23;63.19
34931;BME280;21134;49.646;8.560;2023-08-21T09:14:41;100995.84;;;29.34;63.55
34931;BME280;21134;49.646;8.560;2023-08-21T09:17:08;100992.84;;;29.52;63.25
34931;BME280;21134;49.646;8.560;2023-08-21T09:19:35;100993.25;;;29.58;65.35
34931;BME280;21134;49.646;8.560;2023-08-21T09:22:08;100995.63;;;29.74;65.54
34931;BME280;21134;49.646;8.560;2023-08-21T09:24:36;100989.09;;;29.91;63.95
34931;BME280;21134;49.646;8.560;2023-08-21T09:27:03;100987.19;;;29.93;62.67
34931;BME280;21134;49.646;8.560;2023-08-21T09:29:38;100991.00;;;29.89;62.83
34931;BME280;21134;49.646;8.560;2023-08-21T09:32:05;100996.19;;;30.02;63.03
34931;BME280;21134;49.646;8.560;2023-08-21T09:34:33;100994.75;;;29.98;61.67
34931;BME280;21134;49.646;8.560;2023-08-21T09:37:04;100993.16;;;29.84;62.01
34931;BME280;21134;49.646;8.560;2023-08-21T09:39:33;100993.69;;;30.00;61.71
34931;BME280;21134;49.646;8.560;2023-08-21T09:42:01;100990.00;;;30.03;61.04
34931;BME280;21134;49.646;8.560;2023-08-21T09:44:27;100987.03;;;30.19;60.20
34931;BME280;21134;49.646;8.560;2023-08-21T09:46:55;100985.88;;;30.34;57.68
34931;BME280;21134;49.646;8.560;2023-08-21T09:49:22;100985.28;;;30.30;58.24
34931;BME280;21134;49.646;8.560;2023-08-21T09:51:49;100986.88;;;30.44;58.16
34931;BME280;21134;49.646;8.560;2023-08-21T09:54:16;100988.44;;;30.58;57.65
34931;BME280;21134;49.646;8.560;2023-08-21T09:56:43;100984.34;;;30.65;56.92
34931;BME280;21134;49.646;8.560;2023-08-21T09:59:12;100991.31;;;30.55;56.98
34931;BME280;21134;49.646;8.560;2023-08-21T10:01:39;100986.63;;;30.58;56.39
34931;BME280;21134;49.646;8.560;2023-08-21T10:04:08;100988.44;;;30.58;55.78
34931;BME280;21134;49.646;8.560;2023-08-21T10:06:36;100982.06;;;30.72;55.20
34931;BME280;21134;49.646;8.560;2023-08-21T10:09:04;100985.56;;;30.72;55.79
34931;BME280;21134;49.646;8.560;2023-08-21T10:11:32;100983.94;;;30.83;55.16
34931;BME280;21134;49.646;8.560;2023-08-21T10:13:59;100975.38;;;30.90;55.32
34931;BME280;21134;49.646;8.560;2023-08-21T10:16:27;100982.94;;;31.06;53.41
34931;BME280;21134;49.646;8.560;2023-08-21T10:18:53;100978.72;;;31.15;55.10
34931;BME280;21134;49.646;8.560;2023-08-21T10:21:22;100983.88;;;31.16;53.81
34931;BME280;21134;49.646;8.560;2023-08-21T10:23:51;100977.63;;;31.28;52.16
34931;BME280;21134;49.646;8.560;2023-08-21T10:26:21;100974.25;;;31.26;52.88
34931;BME280;21134;49.646;8.560;2023-08-21T10:28:49;100963.69;;;31.38;53.12
34931;BME280;21134;49.646;8.560;2023-08-21T10:31:31;100974.94;;;31.51;52.16
34931;BME280;21134;49.646;8.560;2023-08-21T10:33:59;100967.81;;;31.63;53.15
34931;BME280;21134;49.646;8.560;2023-08-21T10:39:35;100968.16;;;31.58;53.82
34931;BME280;21134;49.646;8.560;2023-08-21T10:42:05;100963.97;;;31.56;51.87
34931;BME280;21134;49.646;8.560;2023-08-21T10:44:35;100961.22;;;31.57;52.01
34931;BME280;21134;49.646;8.560;2023-08-21T10:47:17;100963.19;;;31.44;52.34
34931;BME280;21134;49.646;8.560;2023-08-21T10:49:45;100965.94;;;31.42;51.79
34931;BME280;21134;49.646;8.560;2023-08-21T10:52:12;100955.28;;;31.65;51.65
34931;BME280;21134;49.646;8.560;2023-08-21T10:54:44;100948.13;;;31.77;51.40
34931;BME280;21134;49.646;8.560;2023-08-21T10:57:10;100950.13;;;31.84;50.92
34931;BME280;21134;49.646;8.560;2023-08-21T10:59:37;100942.50;;;32.02;48.22
34931;BME280;21134;49.646;8.560;2023-08-21T11:02:03;100948.78;;;32.01;47.84
34931;BME280;21134;49.646;8.560;2023-08-21T11:04:39;100936.94;;;32.05;48.63
34931;BME280;21134;49.646;8.560;2023-08-21T11:07:06;100942.38;;;32.04;49.12
34931;BME280;21134;49.646;8.560;2023-08-21T11:09:35;100942.56;;;32.12;48.28
34931;BME280;21134;49.646;8.560;2023-08-21T11:12:05;100946.81;;;32.24;48.05
34931;BME280;21134;49.646;8.560;2023-08-21T11:14:32;100946.25;;;32.00;50.05
34931;BME280;21134;49.646;8.560;2023-08-21T11:16:59;100940.63;;;32.14;49.30
34931;BME280;21134;49.646;8.560;2023-08-21T11:19:25;100940.69;;;32.24;48.75
34931;BME280;21134;49.646;8.560;2023-08-21T11:21:53;100942.81;;;32.30;47.73
34931;BME280;21134;49.646;8.560;2023-08-21T11:24:20;100941.69;;;32.32;47.56
34931;BME280;21134;49.646;8.560;2023-08-21T11:26:46;100933.75;;;32.32;44.97
34931;BME280;21134;49.646;8.560;2023-08-21T11:29:13;100941.44;;;32.35;46.24
34931;BME280;21134;49.646;8.560;2023-08-21T11:31:39;100939.22;;;32.40;45.68
34931;BME280;21134;49.646;8.560;2023-08-21T11:34:06;100941.69;;;32.32;45.17
34931;BME280;21134;49.646;8.560;2023-08-21T11:39:42;100933.53;;;32.76;42.95
34931;BME280;21134;49.646;8.560;2023-08-21T11:42:10;100929.81;;;32.88;41.87
34931;BME280;21134;49.646;8.560;2023-08-21T11:44:42;100939.56;;;32.78;41.67
34931;BME280;21134;49.646;8.560;2023-08-21T11:47:09;100933.06;;;32.61;44.51
34931;BME280;21134;49.646;8.560;2023-08-21T11:49:37;100938.00;;;32.75;44.05
34931;BME280;21134;49.646;8.560;2023-08-21T11:52:04;100936.06;;;32.77;44.99
34931;BME280;21134;49.646;8.560;2023-08-21T11:54:33;100939.69;;;32.76;43.57
34931;BME280;21134;49.646;8.560;2023-08-21T11:57:04;100927.25;;;32.77;42.09
34931;BME280;21134;49.646;8.560;2023-08-21T11:59:31;100923.66;;;32.78;42.55
34931;BME280;21134;49.646;8.560;2023-08-21T12:01:57;100924.81;;;32.95;43.81
34931;BME280;21134;49.646;8.560;2023-08-21T12:04:24;100928.50;;;33.13;43.77
34931;BME280;21134;49.646;8.560;2023-08-21T12:06:52;100916.53;;;33.38;42.56
34931;BME280;21134;49.646;8.560;2023-08-21T12:09:18;100925.44;;;33.18;42.39
34931;BME280;21134;49.646;8.560;2023-08-21T12:11:45;100913.59;;;33.22;42.81
34931;BME280;21134;49.646;8.560;2023-08-21T12:14:12;100915.66;;;33.18;42.58
34931;BME280;21134;49.646;8.560;2023-08-21T12:16:39;100914.16;;;33.25;42.41
34931;BME280;21134;49.646;8.560;2023-08-21T12:19:05;100919.59;;;33.24;42.79
34931;BME280;21134;49.646;8.560;2023-08-21T12:21:34;100924.91;;;33.33;43.64
34931;BME280;21134;49.646;8.560;2023-08-21T12:24:03;100927.97;;;33.29;42.54
34931;BME280;21134;49.646;8.560;2023-08-21T12:26:30;100925.16;;;33.40;43.08
34931;BME280;21134;49.646;8.560;2023-08-21T12:28:56;100914.28;;;33.33;42.67
34931;BME280;21134;49.646;8.560;2023-08-21T12:31:24;100911.63;;;33.43;42.49
34931;BME280;21134;49.646;8.560;2023-08-21T12:33:51;100915.28;;;33.62;42.78
34931;BME280;21134;49.646;8.560;2023-08-21T12:36:17;100917.38;;;33.68;40.76
34931;BME280;21134;49.646;8.560;2023-08-21T12:38:44;100906.22;;;33.64;42.26
34931;BME280;21134;49.646;8.560;2023-08-21T12:41:11;100910.69;;;33.64;41.41
34931;BME280;21134;49.646;8.560;2023-08-21T12:43:37;100912.47;;;33.63;42.73
34931;BME280;21134;49.646;8.560;2023-08-21T12:46:04;100913.72;;;33.78;41.92
34931;BME280;21134;49.646;8.560;2023-08-21T12:48:32;100896.97;;;33.78;42.57
34931;BME280;21134;49.646;8.560;2023-08-21T12:50:58;100893.31;;;33.79;40.70
34931;BME280;21134;49.646;8.560;2023-08-21T12:53:25;100892.63;;;33.87;40.48